createdAt,value
2023-04-10T00:00:39.463Z,63.20
2023-04-10T00:03:07.960Z,63.20
2023-04-10T00:05:36.471Z,63.20
2023-04-10T00:08:04.759Z,63.20
2023-04-10T00:10:33.442Z,63.20
2023-04-10T00:13:03.633Z,63.20
2023-04-10T00:15:33.158Z,63.20
2023-04-10T00:18:01.660Z,63.20
2023-04-10T00:20:29.923Z,63.20
2023-04-10T00:22:58.195Z,63.20
2023-04-10T00:25:26.644Z,63.20
2023-04-10T00:27:55.252Z,63.20
2023-04-10T00:30:23.690Z,63.20
2023-04-10T00:32:53.453Z,63.20
2023-04-10T00:35:21.904Z,63.20
2023-04-10T00:37:51.028Z,63.20
2023-04-10T00:40:19.238Z,63.20
2023-04-10T00:42:47.864Z,63.20
2023-04-10T00:45:16.237Z,63.20
2023-04-10T00:47:44.519Z,63.20
2023-04-10T00:50:14.370Z,63.20
2023-04-10T00:52:42.704Z,63.20
2023-04-10T00:55:11.989Z,63.20
2023-04-10T00:57:41.864Z,63.20
2023-04-10T01:00:11.669Z,63.20
2023-04-10T01:02:40.019Z,63.20
2023-04-10T01:05:10.350Z,63.10
2023-04-10T01:07:52.362Z,63.10
2023-04-10T01:10:30.687Z,63.20
2023-04-10T01:13:09.992Z,63.20
2023-04-10T01:15:46.935Z,63.10
2023-04-10T01:18:21.961Z,63.10
2023-04-10T01:20:50.185Z,63.20
2023-04-10T01:23:47.621Z,63.10
2023-04-10T01:26:18.066Z,63.10
2023-04-10T01:29:00.287Z,63.10
2023-04-10T01:31:36.428Z,63.10
2023-04-10T01:34:09.253Z,63.10
2023-04-10T01:36:43.485Z,63.10
2023-04-10T01:39:12.521Z,63.10
2023-04-10T01:41:43.019Z,63.10
2023-04-10T01:44:15.755Z,63.10
2023-04-10T01:46:45.817Z,63.10
2023-04-10T01:49:15.009Z,63.10
2023-04-10T01:51:43.818Z,63.10
2023-04-10T01:54:12.506Z,63.10
2023-04-10T01:56:41.807Z,63.10
2023-04-10T01:59:10.634Z,63.10
2023-04-10T02:01:40.544Z,63.10
2023-04-10T02:04:08.927Z,63.10
2023-04-10T02:06:46.033Z,63.10
2023-04-10T02:09:27.363Z,63.10
2023-04-10T02:12:00.092Z,63.10
2023-04-10T02:14:31.838Z,63.10
2023-04-10T02:17:03.683Z,63.10
2023-04-10T02:19:34.128Z,63.10
2023-04-10T02:22:03.103Z,63.10
2023-04-10T02:24:31.842Z,63.10
2023-04-10T02:27:00.065Z,63.10
2023-04-10T02:29:28.280Z,63.10
2023-04-10T02:31:57.831Z,63.10
2023-04-10T02:34:27.470Z,63.10
2023-04-10T02:36:55.705Z,63.10
2023-04-10T02:39:23.931Z,63.10
2023-04-10T02:41:52.266Z,63.10
2023-04-10T02:44:20.664Z,63.10
2023-04-10T02:46:48.946Z,63.10
2023-04-10T02:49:17.369Z,63.10
2023-04-10T02:51:46.958Z,63.10
2023-04-10T02:54:15.171Z,63.10
2023-04-10T02:56:43.323Z,63.10
2023-04-10T02:59:11.563Z,63.70
2023-04-10T03:01:40.819Z,63.10
2023-04-10T03:04:09.523Z,63.10
2023-04-10T03:06:37.840Z,63.10
2023-04-10T03:09:07.424Z,63.10
2023-04-10T03:11:35.828Z,63.10
2023-04-10T03:14:04.040Z,63.10
2023-04-10T03:16:32.542Z,63.10
2023-04-10T03:19:00.802Z,63.10
2023-04-10T03:21:30.149Z,63.10
2023-04-10T03:23:58.456Z,63.10
2023-04-10T03:26:29.536Z,63.20
2023-04-10T03:28:57.605Z,63.10
2023-04-10T03:31:25.877Z,63.10
2023-04-10T03:33:54.498Z,63.10
2023-04-10T03:36:23.023Z,63.20
2023-04-10T03:38:52.855Z,63.20
2023-04-10T03:41:22.645Z,63.20
2023-04-10T03:43:54.148Z,63.20
2023-04-10T03:46:22.806Z,63.30
2023-04-10T03:48:52.955Z,63.30
2023-04-10T03:51:21.427Z,63.30
2023-04-10T03:53:49.593Z,63.30
2023-04-10T03:56:18.142Z,63.30
2023-04-10T03:58:46.328Z,63.30
2023-04-10T04:01:16.013Z,63.30
2023-04-10T04:03:44.339Z,63.40
2023-04-10T04:06:12.695Z,63.30
2023-04-10T04:08:40.970Z,63.30
2023-04-10T04:11:09.078Z,63.40
2023-04-10T04:13:37.247Z,63.30
2023-04-10T04:16:06.095Z,63.30
2023-04-10T04:18:35.676Z,63.30
2023-04-10T04:21:03.844Z,63.30
2023-04-10T04:23:32.128Z,63.30
2023-04-10T04:26:00.306Z,63.30
2023-04-10T04:28:30.182Z,63.30
2023-04-10T04:30:58.661Z,63.20
2023-04-10T04:33:26.811Z,63.30
2023-04-10T04:35:57.967Z,63.30
2023-04-10T04:38:26.433Z,63.30
2023-04-10T04:40:54.715Z,63.20
2023-04-10T04:43:22.921Z,63.20
2023-04-10T04:45:51.181Z,63.20
2023-04-10T04:48:19.341Z,63.20
2023-04-10T04:50:47.573Z,63.30
2023-04-10T04:53:17.069Z,63.20
2023-04-10T04:55:45.348Z,63.20
2023-04-10T04:58:13.758Z,63.20
2023-04-10T05:00:42.003Z,63.20
2023-04-10T05:03:10.418Z,63.20
2023-04-10T05:05:38.636Z,63.30
2023-04-10T05:08:06.847Z,63.20
2023-04-10T05:10:37.704Z,63.10
2023-04-10T05:13:07.002Z,63.10
2023-04-10T05:15:35.344Z,63.20
2023-04-10T05:18:03.789Z,63.20
2023-04-10T05:20:32.128Z,63.10
2023-04-10T05:23:00.525Z,63.20
2023-04-10T05:25:28.821Z,63.10
2023-04-10T05:27:58.465Z,63.10
2023-04-10T05:30:26.750Z,63.10
2023-04-10T05:32:54.937Z,63.10
2023-04-10T05:35:23.195Z,63.10
2023-04-10T05:37:51.367Z,63.10
2023-04-10T05:40:19.934Z,63.10
2023-04-10T05:42:48.139Z,63.10
2023-04-10T05:45:18.494Z,63.00
2023-04-10T05:47:46.864Z,63.00
2023-04-10T05:50:15.117Z,63.00
2023-04-10T05:52:43.769Z,63.00
2023-04-10T05:55:12.017Z,63.00
2023-04-10T05:57:40.611Z,63.00
2023-04-10T06:00:09.800Z,63.00
2023-04-10T06:02:39.669Z,63.00
2023-04-10T06:05:08.668Z,63.00
2023-04-10T06:07:37.331Z,63.00
2023-04-10T06:10:06.442Z,63.00
2023-04-10T06:12:34.630Z,63.00
2023-04-10T06:15:02.723Z,63.00
2023-04-10T06:17:30.943Z,63.00
2023-04-10T06:20:03.570Z,62.90
2023-04-10T06:22:32.739Z,63.00
2023-04-10T06:25:01.023Z,62.90
2023-04-10T06:27:29.800Z,63.00
2023-04-10T06:29:58.179Z,63.00
2023-04-10T06:32:26.530Z,63.00
2023-04-10T06:34:54.705Z,62.90
2023-04-10T06:37:31.219Z,62.90
2023-04-10T06:40:05.618Z,63.00
2023-04-10T06:42:33.873Z,62.90
2023-04-10T06:45:02.337Z,62.90
2023-04-10T06:47:31.660Z,62.90
2023-04-10T06:50:00.189Z,62.80
2023-04-10T06:52:29.863Z,62.90
2023-04-10T06:54:57.995Z,62.80
2023-04-10T06:57:26.292Z,62.80
2023-04-10T06:59:54.600Z,62.80
2023-04-10T07:02:22.883Z,62.80
2023-04-10T07:04:52.643Z,62.80
2023-04-10T07:07:21.035Z,62.80
2023-04-10T07:09:50.629Z,62.80
2023-04-10T07:12:18.853Z,62.80
2023-04-10T07:14:47.203Z,62.80
2023-04-10T07:17:15.576Z,62.80
2023-04-10T07:19:43.782Z,62.80
2023-04-10T07:22:12.607Z,62.80
2023-04-10T07:24:40.984Z,62.80
2023-04-10T07:27:10.654Z,62.80
2023-04-10T07:29:38.979Z,62.80
2023-04-10T07:32:07.549Z,62.80
2023-04-10T07:34:36.712Z,62.80
2023-04-10T07:37:04.871Z,62.80
2023-04-10T07:39:33.007Z,62.80
2023-04-10T07:42:01.383Z,62.80
2023-04-10T07:44:31.127Z,62.80
2023-04-10T07:46:59.397Z,62.70
2023-04-10T07:49:27.684Z,62.70
2023-04-10T07:51:55.935Z,62.80
2023-04-10T07:54:24.149Z,62.80
2023-04-10T07:56:53.647Z,62.70
2023-04-10T07:59:21.936Z,62.70
2023-04-10T08:01:51.604Z,62.70
2023-04-10T08:04:19.981Z,62.70
2023-04-10T08:06:49.553Z,63.30
2023-04-10T08:09:17.883Z,62.70
2023-04-10T08:11:46.075Z,62.70
2023-04-10T08:14:18.481Z,62.70
2023-04-10T08:16:47.017Z,62.70
2023-04-10T08:19:16.657Z,62.70
2023-04-10T08:21:44.889Z,62.70
2023-04-10T08:24:13.125Z,62.70
2023-04-10T08:26:41.265Z,62.70
2023-04-10T08:29:09.561Z,62.70
2023-04-10T08:31:37.738Z,62.70
2023-04-10T08:34:06.054Z,62.70
2023-04-10T08:36:36.093Z,62.70
2023-04-10T08:39:04.405Z,62.70
2023-04-10T08:41:32.697Z,62.70
2023-04-10T08:44:01.225Z,62.70
2023-04-10T08:46:32.566Z,62.70
2023-04-10T08:49:03.662Z,62.70
2023-04-10T08:51:33.477Z,62.70
2023-04-10T08:54:08.291Z,62.70
2023-04-10T08:56:38.986Z,62.70
2023-04-10T08:59:08.915Z,62.70
2023-04-10T09:01:37.353Z,62.70
2023-04-10T09:04:06.109Z,62.70
2023-04-10T09:06:34.343Z,62.70
2023-04-10T09:09:03.818Z,62.70
2023-04-10T09:12:01.449Z,62.70
2023-04-10T09:14:31.884Z,62.70
2023-04-10T09:17:14.660Z,62.70
2023-04-10T09:19:43.309Z,62.70
2023-04-10T09:22:11.580Z,62.70
2023-04-10T09:24:42.509Z,62.70
2023-04-10T09:27:10.878Z,62.70
2023-04-10T09:29:49.102Z,62.70
2023-04-10T09:32:38.314Z,62.80
2023-04-10T09:35:08.508Z,62.80
2023-04-10T09:37:37.385Z,62.80
2023-04-10T09:40:20.772Z,62.80
2023-04-10T09:42:49.227Z,62.90
2023-04-10T09:45:20.177Z,62.90
2023-04-10T09:48:02.200Z,62.90
2023-04-10T09:50:38.895Z,62.90
2023-04-10T09:53:08.559Z,62.90
2023-04-10T09:55:39.002Z,63.00
2023-04-10T09:58:07.680Z,63.00
2023-04-10T10:00:42.062Z,63.00
2023-04-10T10:03:12.789Z,63.00
2023-04-10T10:05:42.092Z,63.00
2023-04-10T10:08:11.932Z,63.00
2023-04-10T10:10:47.164Z,63.00
2023-04-10T10:13:20.876Z,63.00
2023-04-10T10:15:56.122Z,63.00
2023-04-10T10:18:32.779Z,63.00
2023-04-10T10:21:01.956Z,63.00
2023-04-10T10:23:30.412Z,63.00
2023-04-10T10:26:02.523Z,63.00
2023-04-10T10:28:34.431Z,63.00
2023-04-10T10:31:03.746Z,63.00
2023-04-10T10:33:32.826Z,63.00
2023-04-10T10:36:02.903Z,63.00
2023-04-10T10:38:32.014Z,63.00
2023-04-10T10:41:09.291Z,63.00
2023-04-10T10:43:46.819Z,63.00
2023-04-10T10:46:22.588Z,63.00
2023-04-10T10:48:58.193Z,63.00
2023-04-10T10:51:44.326Z,63.00
2023-04-10T10:54:31.940Z,62.90
2023-04-10T10:57:02.195Z,63.00
2023-04-10T10:59:57.829Z,63.00
2023-04-10T11:02:26.353Z,62.90
2023-04-10T11:04:54.786Z,62.90
2023-04-10T11:07:23.073Z,62.90
2023-04-10T11:09:53.561Z,63.00
2023-04-10T11:12:24.759Z,63.00
2023-04-10T11:15:00.986Z,62.90
2023-04-10T11:17:48.771Z,62.90
2023-04-10T11:20:17.445Z,62.90
2023-04-10T11:23:12.394Z,62.90
2023-04-10T11:25:51.502Z,62.90
2023-04-10T11:28:41.774Z,62.90
2023-04-10T11:31:19.386Z,62.90
2023-04-10T11:33:48.411Z,62.90
2023-04-10T11:36:18.706Z,62.80
2023-04-10T11:38:57.386Z,62.90
2023-04-10T11:41:31.088Z,62.80
2023-04-10T11:44:01.689Z,62.80
2023-04-10T11:46:30.885Z,62.90
2023-04-10T11:49:02.358Z,62.90
2023-04-10T11:51:31.685Z,62.80
2023-04-10T11:54:08.064Z,62.80
2023-04-10T11:56:36.999Z,62.80
2023-04-10T11:59:10.832Z,62.80
2023-04-10T12:01:42.538Z,62.90
2023-04-10T12:04:18.747Z,62.80
2023-04-10T12:06:48.473Z,62.80
2023-04-10T12:09:17.572Z,62.80
2023-04-10T12:11:53.669Z,62.80
2023-04-10T12:14:24.448Z,62.80
2023-04-10T12:16:53.098Z,62.80
2023-04-10T12:19:23.595Z,62.80
2023-04-10T12:21:51.921Z,62.80
2023-04-10T12:24:52.720Z,62.80
2023-04-10T12:27:22.679Z,62.80
2023-04-10T12:29:53.237Z,62.80
2023-04-10T12:32:22.314Z,62.90
2023-04-10T12:34:57.262Z,62.80
2023-04-10T12:37:25.901Z,62.80
2023-04-10T12:39:54.160Z,62.80
2023-04-10T12:42:23.655Z,62.80
2023-04-10T12:44:54.555Z,62.80
2023-04-10T12:47:22.900Z,62.80
2023-04-10T12:50:11.407Z,62.80
2023-04-10T12:52:41.548Z,63.50
2023-04-10T12:55:12.255Z,62.80
2023-04-10T12:57:41.371Z,62.80
2023-04-10T13:00:13.591Z,62.80
2023-04-10T13:02:42.765Z,62.80
2023-04-10T13:05:11.791Z,62.80
2023-04-10T13:07:41.140Z,62.80
2023-04-10T13:10:10.360Z,62.70
2023-04-10T13:12:40.117Z,62.70
2023-04-10T13:15:10.824Z,62.80
2023-04-10T13:17:40.953Z,62.80
2023-04-10T13:20:11.303Z,62.70
2023-04-10T13:22:39.563Z,62.80
2023-04-10T13:25:08.330Z,62.70
2023-04-10T13:27:36.537Z,62.80
2023-04-10T13:30:05.211Z,62.80
2023-04-10T13:32:34.839Z,62.80
2023-04-10T13:35:03.197Z,62.80
2023-04-10T13:37:31.498Z,62.80
2023-04-10T13:39:59.860Z,62.80
2023-04-10T13:42:28.160Z,62.80
2023-04-10T13:44:56.339Z,62.80
2023-04-10T13:47:24.562Z,62.80
2023-04-10T13:49:54.309Z,62.80
2023-04-10T13:52:22.497Z,62.80
2023-04-10T13:54:50.669Z,62.80
2023-04-10T13:57:18.863Z,62.80
2023-04-10T13:59:47.153Z,62.80
2023-04-10T14:02:15.452Z,62.80
2023-04-10T14:04:46.164Z,62.70
2023-04-10T14:07:16.102Z,62.70
2023-04-10T14:09:44.386Z,62.80
2023-04-10T14:12:12.665Z,62.80
2023-04-10T14:14:40.876Z,62.80
2023-04-10T14:17:09.099Z,62.80
2023-04-10T14:19:38.362Z,62.80
2023-04-10T14:22:06.794Z,62.80
2023-04-10T14:24:36.407Z,62.80
2023-04-10T14:27:04.754Z,62.90
2023-04-10T14:29:38.903Z,62.90
2023-04-10T14:32:08.942Z,62.90
2023-04-10T14:34:37.139Z,62.90
2023-04-10T14:37:05.543Z,62.90
2023-04-10T14:39:36.239Z,62.90
2023-04-10T14:42:04.530Z,63.00
2023-04-10T14:44:32.923Z,63.00
2023-04-10T14:47:01.288Z,63.00
2023-04-10T14:49:29.523Z,63.00
2023-04-10T14:51:57.735Z,63.00
2023-04-10T14:54:26.072Z,63.00
2023-04-10T14:56:57.209Z,63.00
2023-04-10T14:59:25.111Z,63.10
2023-04-10T15:01:54.103Z,63.00
2023-04-10T15:04:22.551Z,63.00
2023-04-10T15:06:51.965Z,63.00
2023-04-10T15:09:21.885Z,63.10
2023-04-10T15:11:50.497Z,63.00
2023-04-10T15:14:20.212Z,63.00
2023-04-10T15:16:48.476Z,63.00
2023-04-10T15:19:16.706Z,63.00
2023-04-10T15:21:44.937Z,63.00
2023-04-10T15:24:13.215Z,63.00
2023-04-10T15:26:45.109Z,63.00
2023-04-10T15:29:13.765Z,63.10
2023-04-10T15:31:43.485Z,63.00
2023-04-10T15:34:11.655Z,63.00
2023-04-10T15:36:39.989Z,63.00
2023-04-10T15:39:08.645Z,63.00
2023-04-10T15:41:36.828Z,63.00
2023-04-10T15:44:05.546Z,63.00
2023-04-10T15:46:34.687Z,63.10
2023-04-10T15:49:05.218Z,63.00
2023-04-10T15:51:33.434Z,63.00
2023-04-10T15:54:03.325Z,63.00
2023-04-10T15:56:31.537Z,63.00
2023-04-10T15:58:59.812Z,63.10
2023-04-10T16:01:28.138Z,63.10
2023-04-10T16:03:56.701Z,63.00
2023-04-10T16:06:27.952Z,62.90
2023-04-10T16:08:57.444Z,62.90
2023-04-10T16:11:25.675Z,62.90
2023-04-10T16:13:53.967Z,62.90
2023-04-10T16:16:22.633Z,62.80
2023-04-10T16:18:51.982Z,62.80
2023-04-10T16:21:21.797Z,62.80
2023-04-10T16:23:51.370Z,62.80
2023-04-10T16:26:19.753Z,62.80
2023-04-10T16:28:48.069Z,62.80
2023-04-10T16:31:16.565Z,62.80
2023-04-10T16:33:44.772Z,62.80
2023-04-10T16:36:12.925Z,62.80
2023-04-10T16:38:41.195Z,62.80
2023-04-10T16:41:12.571Z,62.70
2023-04-10T16:43:40.980Z,62.80
2023-04-10T16:46:09.309Z,62.80
2023-04-10T16:48:37.619Z,62.80
2023-04-10T16:51:07.090Z,62.80
2023-04-10T16:53:36.444Z,62.70
2023-04-10T16:56:05.466Z,62.70
2023-04-10T16:58:36.885Z,62.70
2023-04-10T17:01:16.065Z,62.70
2023-04-10T17:03:44.237Z,62.70
2023-04-10T17:06:12.525Z,62.60
2023-04-10T17:08:40.850Z,62.70
2023-04-10T17:11:09.228Z,62.60
2023-04-10T17:13:39.195Z,63.20
2023-04-10T17:16:08.466Z,62.60
2023-04-10T17:18:36.665Z,62.60
2023-04-10T17:21:05.168Z,62.60
2023-04-10T17:23:33.442Z,62.60
2023-04-10T17:26:04.760Z,62.60
2023-04-10T17:28:33.425Z,62.60
2023-04-10T17:31:03.250Z,62.60
2023-04-10T17:33:31.540Z,62.60
2023-04-10T17:35:59.855Z,62.60
2023-04-10T17:38:28.137Z,62.60
2023-04-10T17:40:56.368Z,62.60
2023-04-10T17:43:24.576Z,62.60
2023-04-10T17:45:52.901Z,62.60
2023-04-10T17:48:22.568Z,62.60
2023-04-10T17:50:51.790Z,62.60
2023-04-10T17:53:20.160Z,62.60
2023-04-10T17:55:48.704Z,62.70
2023-04-10T17:58:16.864Z,62.60
2023-04-10T18:00:45.106Z,62.60
2023-04-10T18:03:13.489Z,62.60
2023-04-10T18:05:43.074Z,62.50
2023-04-10T18:08:11.306Z,62.50
2023-04-10T18:10:39.540Z,62.50
2023-04-10T18:13:08.017Z,62.50
2023-04-10T18:15:36.265Z,62.50
2023-04-10T18:18:04.639Z,62.50
2023-04-10T18:20:32.989Z,62.50
2023-04-10T18:23:04.462Z,62.60
2023-04-10T18:25:33.059Z,62.50
2023-04-10T18:30:32.489Z,62.50
2023-04-10T18:33:02.097Z,62.50
2023-04-10T18:35:31.569Z,62.50
2023-04-10T18:37:59.906Z,62.60
2023-04-10T18:40:29.876Z,62.60
2023-04-10T18:42:59.765Z,62.60
2023-04-10T18:45:28.056Z,62.60
2023-04-10T18:47:56.375Z,62.60
2023-04-10T18:50:24.736Z,62.60
2023-04-10T18:52:52.911Z,62.60
2023-04-10T18:55:22.204Z,62.60
2023-04-10T18:57:51.857Z,62.60
2023-04-10T19:00:20.511Z,62.70
2023-04-10T19:02:48.970Z,63.30
2023-04-10T19:05:18.128Z,62.70
2023-04-10T19:07:56.505Z,62.60
2023-04-10T19:10:30.236Z,62.70
2023-04-10T19:13:00.141Z,62.70
2023-04-10T19:15:29.015Z,62.60
2023-04-10T19:17:57.351Z,62.70
2023-04-10T19:20:51.209Z,62.70
2023-04-10T19:23:14.144Z,62.70
2023-04-10T19:25:43.660Z,62.70
2023-04-10T19:28:13.289Z,62.70
2023-04-10T19:30:41.492Z,62.70
2023-04-10T19:33:09.689Z,62.70
2023-04-10T19:35:38.022Z,62.70
2023-04-10T19:38:06.257Z,62.70
2023-04-10T19:40:34.373Z,62.70
2023-04-10T19:43:02.783Z,62.80
2023-04-10T19:45:33.231Z,62.70
2023-04-10T19:48:01.547Z,62.80
2023-04-10T19:50:31.208Z,62.80
2023-04-10T19:52:59.805Z,62.80
2023-04-10T19:55:28.031Z,62.80
2023-04-10T19:57:56.246Z,62.80
2023-04-10T20:00:24.353Z,62.80
2023-04-10T20:02:54.074Z,62.80
2023-04-10T20:05:22.560Z,62.80
2023-04-10T20:07:50.724Z,62.80
2023-04-10T20:10:18.956Z,62.80
2023-04-10T20:12:47.124Z,62.80
2023-04-10T20:15:15.416Z,62.80
2023-04-10T20:17:43.570Z,62.80
2023-04-10T20:20:13.775Z,62.80
2023-04-10T20:22:43.118Z,62.80
2023-04-10T20:25:11.660Z,62.80
2023-04-10T20:27:39.896Z,62.80
2023-04-10T20:30:09.982Z,63.50
2023-04-10T20:32:38.870Z,62.90
2023-04-10T20:35:08.212Z,62.90
2023-04-10T20:37:37.768Z,62.90
2023-04-10T20:40:06.936Z,62.90
2023-04-10T20:42:35.094Z,62.80
2023-04-10T20:45:03.709Z,62.90
2023-04-10T20:47:31.945Z,63.10
2023-04-10T20:50:00.324Z,62.90
2023-04-10T20:52:28.533Z,62.90
2023-04-10T20:54:58.180Z,62.90
2023-04-10T20:57:26.526Z,62.90
2023-04-10T20:59:54.714Z,62.80
2023-04-10T21:02:23.128Z,62.90
2023-04-10T21:04:52.145Z,62.80
2023-04-10T21:07:20.350Z,62.90
2023-04-10T21:09:48.704Z,62.90
2023-04-10T21:12:18.331Z,63.00
2023-04-10T21:14:48.120Z,63.00
2023-04-10T21:17:16.747Z,63.00
2023-04-10T21:19:44.917Z,62.90
2023-04-10T21:22:13.131Z,63.00
2023-04-10T21:24:41.386Z,62.90
2023-04-10T21:27:09.557Z,63.00
2023-04-10T21:29:39.194Z,62.90
2023-04-10T21:32:07.669Z,62.90
2023-04-10T21:34:36.059Z,63.00
2023-04-10T21:37:05.501Z,63.00
2023-04-10T21:39:33.614Z,63.00
2023-04-10T21:42:01.923Z,62.90
2023-04-10T21:44:30.547Z,63.00
2023-04-10T21:47:00.687Z,63.00
2023-04-10T21:49:28.854Z,63.00
2023-04-10T21:51:57.602Z,63.00
2023-04-10T21:54:25.892Z,63.00
2023-04-10T21:56:54.135Z,63.00
2023-04-10T21:59:22.286Z,63.00
2023-04-10T22:01:50.688Z,63.00
2023-04-10T22:04:20.489Z,63.00
2023-04-10T22:06:48.721Z,63.00
2023-04-10T22:09:17.415Z,63.00
2023-04-10T22:11:45.705Z,63.00
2023-04-10T22:14:17.939Z,63.00
2023-04-10T22:16:47.722Z,63.00
2023-04-10T22:19:15.959Z,63.00
2023-04-10T22:21:45.620Z,63.00
2023-04-10T22:24:13.850Z,63.00
2023-04-10T22:26:45.995Z,63.00
2023-04-10T22:29:14.980Z,63.00
2023-04-10T22:31:43.346Z,63.00
2023-04-10T22:34:12.125Z,63.00
2023-04-10T22:36:40.424Z,63.00
2023-04-10T22:39:10.041Z,63.00
2023-04-10T22:41:38.250Z,63.00
2023-04-10T22:44:07.504Z,63.00
2023-04-10T22:46:35.888Z,63.00
2023-04-10T22:49:04.282Z,63.00
2023-04-10T22:51:32.539Z,63.00
2023-04-10T22:54:00.718Z,63.00
2023-04-10T22:56:30.475Z,63.00
2023-04-10T22:58:58.703Z,63.00
2023-04-10T23:01:26.930Z,63.00
2023-04-10T23:03:55.260Z,63.00
2023-04-10T23:06:24.088Z,63.00
2023-04-10T23:08:52.970Z,63.00
2023-04-10T23:11:21.778Z,63.00
2023-04-10T23:13:51.341Z,63.00
2023-04-10T23:16:19.532Z,63.00
2023-04-10T23:18:47.718Z,63.00
2023-04-10T23:21:16.415Z,63.00
2023-04-10T23:23:44.594Z,63.00
2023-04-10T23:26:12.943Z,63.00
2023-04-10T23:28:41.197Z,63.00
2023-04-10T23:31:10.878Z,63.00
2023-04-10T23:33:39.090Z,63.00
2023-04-10T23:36:07.954Z,63.00
2023-04-10T23:38:36.193Z,63.00
2023-04-10T23:41:04.436Z,63.00
2023-04-10T23:43:32.598Z,63.00
2023-04-10T23:46:00.985Z,63.00
2023-04-10T23:48:30.513Z,62.90
2023-04-10T23:51:05.928Z,62.90
2023-04-10T23:53:34.677Z,63.00
2023-04-10T23:56:03.045Z,62.90
2023-04-10T23:58:31.374Z,63.00
